Time;durP1;ratioP1;P1;durP2;ratioP2;P2;SDS_P1;SDS_P2;PMS_P1;PMS_P2;Temp;Humidity;BMP_temperature;BMP_pressure;BME280_temperature;BME280_humidity;BME280_pressure;Samples;Min_cycle;Max_cycle;Signal;HPM_P1;HPM_P2
2022/03/21 00:00:22;;;;;;;68.93;11.05;;;;;;;;;;5114204;28;20200;-71
2022/03/21 00:02:49;;;;;;;70.13;12.38;;;;;;;;;;5114569;28;20210;-73
2022/03/21 00:05:17;;;;;;;70.40;10.90;;;;;;;;;;5114652;27;20195;-72
2022/03/21 00:07:45;;;;;;;68.70;9.40;;;;;;;;;;5113283;28;20612;-71
2022/03/21 00:10:12;;;;;;;70.25;10.45;;;;;;;;;;5114318;27;20201;-71
2022/03/21 00:12:40;;;;;;;71.15;12.68;;;;;;;;;;5114521;28;20200;-72
2022/03/21 00:15:10;;;;;;;70.63;10.48;;;;;;;;;;5113868;28;20272;-72
2022/03/21 00:17:40;;;;;;;75.95;12.02;;;;;;;;;;5112471;28;20223;-73
2022/03/21 00:20:09;;;;;;;69.07;10.45;;;;;;;;;;5114330;28;20210;-73
2022/03/21 00:22:37;;;;;;;68.22;10.48;;;;;;;;;;5113063;28;20203;-72
2022/03/21 00:25:08;;;;;;;70.88;11.68;;;;;;;;;;5099172;28;20204;-71
2022/03/21 00:27:35;;;;;;;67.88;9.82;;;;;;;;;;5092227;28;20228;-71
2022/03/21 00:30:03;;;;;;;70.60;11.32;;;;;;;;;;5093367;28;20212;-71
2022/03/21 00:32:30;;;;;;;75.18;11.02;;;;;;;;;;5093539;28;20295;-73
2022/03/21 00:34:57;;;;;;;70.22;10.48;;;;;;;;;;5093287;28;20260;-71
2022/03/21 00:37:25;;;;;;;69.50;11.15;;;;;;;;;;5092960;28;20308;-72
2022/03/21 00:39:52;;;;;;;69.50;9.88;;;;;;;;;;5093687;28;20254;-71
2022/03/21 00:42:21;;;;;;;68.65;10.05;;;;;;;;;;5093663;28;20240;-71
2022/03/21 00:44:50;;;;;;;74.25;12.48;;;;;;;;;;5093419;28;20224;-71
2022/03/21 00:47:17;;;;;;;69.05;10.18;;;;;;;;;;5092318;28;20228;-71
2022/03/21 00:49:44;;;;;;;76.60;11.15;;;;;;;;;;5093250;28;20204;-71
2022/03/21 00:52:11;;;;;;;70.35;11.52;;;;;;;;;;5092956;28;20611;-71
2022/03/21 00:54:39;;;;;;;69.78;10.07;;;;;;;;;;5092815;28;20216;-72
2022/03/21 00:57:06;;;;;;;71.68;10.82;;;;;;;;;;5103826;28;20227;-71
2022/03/21 00:59:34;;;;;;;72.38;11.80;;;;;;;;;;5113286;28;20203;-71
2022/03/21 01:02:01;;;;;;;70.43;11.40;;;;;;;;;;5113375;28;20290;-71
2022/03/21 01:04:29;;;;;;;69.28;10.30;;;;;;;;;;5113210;28;20782;-73
2022/03/21 01:06:56;;;;;;;73.03;11.55;;;;;;;;;;5112795;28;20310;-73
2022/03/21 01:09:23;;;;;;;69.30;11.52;;;;;;;;;;5112527;27;20310;-71
2022/03/21 01:11:50;;;;;;;71.55;10.93;;;;;;;;;;5113040;28;20628;-71
2022/03/21 01:14:17;;;;;;;74.97;10.85;;;;;;;;;;5113227;28;20566;-71
2022/03/21 01:16:46;;;;;;;70.78;10.70;;;;;;;;;;5112858;28;20227;-71
2022/03/21 01:19:13;;;;;;;71.57;11.38;;;;;;;;;;5112555;28;20208;-73
2022/03/21 01:21:40;;;;;;;68.13;11.00;;;;;;;;;;5113076;28;20581;-71
2022/03/21 01:24:08;;;;;;;69.65;11.45;;;;;;;;;;5113005;28;20217;-71
2022/03/21 01:26:35;;;;;;;69.13;11.05;;;;;;;;;;5112168;28;20233;-71
2022/03/21 01:29:02;;;;;;;72.88;11.75;;;;;;;;;;5108403;28;20203;-71
2022/03/21 01:31:29;;;;;;;70.47;10.73;;;;;;;;;;5112644;28;20253;-70
2022/03/21 01:33:57;;;;;;;70.35;11.05;;;;;;;;;;5112472;28;20213;-71
2022/03/21 01:36:25;;;;;;;69.22;10.27;;;;;;;;;;5112528;28;20227;-71
2022/03/21 01:38:52;;;;;;;72.00;9.68;;;;;;;;;;5111867;28;20226;-72
2022/03/21 01:41:19;;;;;;;66.82;10.27;;;;;;;;;;5112852;28;20636;-71
2022/03/21 01:43:55;;;;;;;71.88;11.40;;;;;;;;;;5112419;28;20747;-72
2022/03/21 01:46:22;;;;;;;76.80;12.75;;;;;;;;;;5112469;28;20770;-71
2022/03/21 01:48:50;;;;;;;74.60;11.68;;;;;;;;;;5111347;28;20690;-71
2022/03/21 01:51:18;;;;;;;72.70;10.95;;;;;;;;;;5112167;28;20299;-71
2022/03/21 01:56:30;;;;;;;72.22;11.93;;;;;;;;;;5112246;28;20307;-71
2022/03/21 01:58:58;;;;;;;72.00;11.95;;;;;;;;;;5109546;28;20235;-73
2022/03/21 02:01:25;;;;;;;70.53;11.80;;;;;;;;;;5090140;28;20219;-71
2022/03/21 02:03:52;;;;;;;71.32;11.45;;;;;;;;;;5091966;28;20204;-72
2022/03/21 02:06:21;;;;;;;73.03;12.02;;;;;;;;;;5091972;28;20605;-71
2022/03/21 02:08:49;;;;;;;71.25;12.60;;;;;;;;;;5091063;28;20212;-71
2022/03/21 02:11:16;;;;;;;71.10;12.40;;;;;;;;;;5091596;28;20577;-71
2022/03/21 02:13:43;;;;;;;71.63;11.20;;;;;;;;;;5091583;28;20204;-71
2022/03/21 02:16:11;;;;;;;71.18;12.20;;;;;;;;;;5091378;28;20231;-73
2022/03/21 02:18:40;;;;;;;71.50;11.50;;;;;;;;;;5091356;28;20210;-71
2022/03/21 02:21:07;;;;;;;73.03;12.38;;;;;;;;;;5091865;28;20200;-72
2022/03/21 02:23:40;;;;;;;70.38;12.13;;;;;;;;;;5091867;28;20695;-71
2022/03/21 02:26:09;;;;;;;73.07;12.20;;;;;;;;;;5092070;28;20224;-72
2022/03/21 02:28:37;;;;;;;74.00;12.05;;;;;;;;;;5096694;28;20214;-71
2022/03/21 02:31:05;;;;;;;70.75;12.00;;;;;;;;;;5103398;28;20208;-70
2022/03/21 02:33:32;;;;;;;76.93;11.52;;;;;;;;;;5091464;28;20238;-70
2022/03/21 02:35:59;;;;;;;73.32;11.25;;;;;;;;;;5091328;28;20717;-73
2022/03/21 02:38:28;;;;;;;75.32;11.52;;;;;;;;;;5091185;28;20295;-71
2022/03/21 02:40:55;;;;;;;75.75;12.27;;;;;;;;;;5092099;28;20697;-71
2022/03/21 02:43:23;;;;;;;70.28;11.40;;;;;;;;;;5095658;28;20204;-72
2022/03/21 02:45:50;;;;;;;71.30;11.25;;;;;;;;;;5095494;28;20291;-71
2022/03/21 02:48:20;;;;;;;69.22;11.35;;;;;;;;;;5094781;28;20204;-73
2022/03/21 02:50:51;;;;;;;70.88;12.18;;;;;;;;;;5095241;28;20465;-71
2022/03/21 02:53:18;;;;;;;72.18;12.07;;;;;;;;;;5095256;28;20676;-72
2022/03/21 02:55:46;;;;;;;72.30;11.10;;;;;;;;;;5095389;28;20332;-71
2022/03/21 02:58:13;;;;;;;70.85;11.27;;;;;;;;;;5095112;28;20204;-71
2022/03/21 03:00:41;;;;;;;67.45;10.95;;;;;;;;;;5095382;28;20210;-72
2022/03/21 03:03:08;;;;;;;70.57;10.95;;;;;;;;;;5092283;28;20204;-71
2022/03/21 03:05:35;;;;;;;70.72;10.68;;;;;;;;;;5095382;28;20211;-70
2022/03/21 03:08:03;;;;;;;72.20;12.02;;;;;;;;;;5094687;28;20581;-71
2022/03/21 03:10:30;;;;;;;70.88;11.82;;;;;;;;;;5094530;28;20300;-72
2022/03/21 03:12:57;;;;;;;73.20;12.00;;;;;;;;;;5095015;28;20207;-71
2022/03/21 03:15:25;;;;;;;72.25;11.57;;;;;;;;;;5094983;28;20619;-71
2022/03/21 03:17:53;;;;;;;71.25;12.13;;;;;;;;;;5093809;28;20230;-71
2022/03/21 03:20:21;;;;;;;71.75;11.68;;;;;;;;;;5095145;28;20670;-72
2022/03/21 03:22:49;;;;;;;71.35;12.38;;;;;;;;;;5094952;28;20236;-71
2022/03/21 03:25:16;;;;;;;70.93;11.82;;;;;;;;;;5095040;28;20204;-71
2022/03/21 03:27:43;;;;;;;68.90;10.52;;;;;;;;;;5093991;28;20220;-71
2022/03/21 03:30:10;;;;;;;78.45;13.43;;;;;;;;;;5094266;28;20220;-70
2022/03/21 03:32:39;;;;;;;85.68;12.90;;;;;;;;;;5094788;28;20291;-71
2022/03/21 03:35:09;;;;;;;71.53;11.82;;;;;;;;;;5098755;28;20223;-72
2022/03/21 03:37:36;;;;;;;90.05;17.60;;;;;;;;;;5114037;28;20739;-71
2022/03/21 03:40:03;;;;;;;83.65;16.77;;;;;;;;;;5115039;28;20206;-72
2022/03/21 03:42:31;;;;;;;77.65;13.27;;;;;;;;;;5114777;27;20209;-71
2022/03/21 03:44:58;;;;;;;97.32;19.67;;;;;;;;;;5115266;28;20203;-71
2022/03/21 03:47:25;;;;;;;85.25;17.20;;;;;;;;;;5114290;28;20292;-71
2022/03/21 03:49:53;;;;;;;89.68;18.00;;;;;;;;;;5114203;28;20204;-70
2022/03/21 03:52:21;;;;;;;92.75;19.52;;;;;;;;;;5114426;28;20294;-71
2022/03/21 03:54:48;;;;;;;94.95;19.23;;;;;;;;;;5114712;28;20219;-70
2022/03/21 03:57:15;;;;;;;80.45;16.77;;;;;;;;;;5113521;27;20227;-72
2022/03/21 03:59:43;;;;;;;80.45;14.43;;;;;;;;;;5114936;27;20230;-71
2022/03/21 04:02:10;;;;;;;75.15;12.57;;;;;;;;;;5114797;28;20207;-71
2022/03/21 04:04:37;;;;;;;76.05;12.48;;;;;;;;;;5114663;28;20203;-70
2022/03/21 04:07:05;;;;;;;71.50;12.77;;;;;;;;;;5110465;28;20219;-73
2022/03/21 04:09:33;;;;;;;71.78;11.57;;;;;;;;;;5113751;28;20254;-70
2022/03/21 04:12:02;;;;;;;70.57;12.60;;;;;;;;;;5114040;28;20290;-71
2022/03/21 04:14:29;;;;;;;74.93;12.07;;;;;;;;;;5114367;28;20214;-70
2022/03/21 04:16:56;;;;;;;82.68;12.13;;;;;;;;;;5114146;28;20227;-71
2022/03/21 04:19:24;;;;;;;74.35;12.70;;;;;;;;;;5113814;28;20211;-70
2022/03/21 04:21:51;;;;;;;75.18;12.65;;;;;;;;;;5114286;28;20300;-71
2022/03/21 04:24:18;;;;;;;68.97;10.48;;;;;;;;;;5114110;28;20640;-71
2022/03/21 04:26:47;;;;;;;73.72;11.48;;;;;;;;;;5113797;28;20237;-71
2022/03/21 04:29:14;;;;;;;72.38;12.43;;;;;;;;;;5113218;28;20718;-70
2022/03/21 04:31:41;;;;;;;77.82;11.55;;;;;;;;;;5113747;28;20250;-71
2022/03/21 04:34:08;;;;;;;72.45;12.15;;;;;;;;;;5113752;28;20204;-72
2022/03/21 04:36:35;;;;;;;72.72;11.70;;;;;;;;;;5112882;28;20574;-71
2022/03/21 04:39:03;;;;;;;72.47;9.93;;;;;;;;;;5109781;28;20203;-72
2022/03/21 04:41:30;;;;;;;70.60;11.93;;;;;;;;;;5113958;28;20204;-70
2022/03/21 04:43:59;;;;;;;73.50;11.77;;;;;;;;;;5113741;27;20203;-71
2022/03/21 04:46:26;;;;;;;69.90;11.07;;;;;;;;;;5113401;28;20321;-70
2022/03/21 04:48:53;;;;;;;70.45;11.35;;;;;;;;;;5112910;28;20237;-71
2022/03/21 04:51:20;;;;;;;74.55;12.25;;;;;;;;;;5113023;28;20203;-70
2022/03/21 04:53:47;;;;;;;70.07;11.48;;;;;;;;;;5113249;28;20204;-71
2022/03/21 04:56:14;;;;;;;70.30;11.80;;;;;;;;;;5113417;28;20729;-70
2022/03/21 04:58:42;;;;;;;72.50;12.32;;;;;;;;;;5113034;28;20210;-71
2022/03/21 05:01:10;;;;;;;67.90;10.55;;;;;;;;;;5113754;28;20291;-71
2022/03/21 05:03:37;;;;;;;69.20;11.65;;;;;;;;;;5112703;28;20298;-72
2022/03/21 05:06:05;;;;;;;71.68;11.93;;;;;;;;;;5113188;28;20236;-70
2022/03/21 05:08:32;;;;;;;70.85;10.60;;;;;;;;;;5110192;28;20214;-74
2022/03/21 05:10:59;;;;;;;79.05;12.38;;;;;;;;;;5091894;28;20417;-71
2022/03/21 05:13:26;;;;;;;73.05;11.35;;;;;;;;;;5092518;28;20704;-71
2022/03/21 05:15:53;;;;;;;69.15;10.82;;;;;;;;;;5092771;28;20571;-70
2022/03/21 05:18:22;;;;;;;69.65;11.45;;;;;;;;;;5091827;28;20208;-71
2022/03/21 05:20:49;;;;;;;68.13;10.27;;;;;;;;;;5092740;28;20212;-71
2022/03/21 05:31:30;;;;;;;70.75;10.30;;;;;;;;;;5092178;28;20240;-71
2022/03/21 05:36:44;;;;;;;79.20;11.88;;;;;;;;;;5092333;28;20308;-71
2022/03/21 05:39:11;;;;;;;69.80;10.60;;;;;;;;;;5090416;28;20199;-71
2022/03/21 05:41:39;;;;;;;71.90;12.40;;;;;;;;;;5090001;28;20299;-71
2022/03/21 05:44:07;;;;;;;71.60;10.65;;;;;;;;;;5092081;28;20219;-70
2022/03/21 05:46:34;;;;;;;73.00;12.25;;;;;;;;;;5092201;28;20232;-71
2022/03/21 05:49:03;;;;;;;72.18;11.68;;;;;;;;;;5091650;28;20641;-71
2022/03/21 05:51:31;;;;;;;73.75;12.20;;;;;;;;;;5091735;28;20242;-70
2022/03/21 05:53:59;;;;;;;72.97;11.50;;;;;;;;;;5091759;28;20201;-71
2022/03/21 05:56:27;;;;;;;69.75;10.30;;;;;;;;;;5092304;28;20224;-71
2022/03/21 05:58:54;;;;;;;70.30;10.90;;;;;;;;;;5091349;28;20210;-71
2022/03/21 06:01:22;;;;;;;71.00;10.70;;;;;;;;;;5092076;28;20236;-71
2022/03/21 06:03:50;;;;;;;70.72;12.38;;;;;;;;;;5091870;28;20676;-70
2022/03/21 06:06:19;;;;;;;72.75;11.98;;;;;;;;;;5091682;28;20778;-71
2022/03/21 06:08:46;;;;;;;71.55;12.00;;;;;;;;;;5091069;28;20212;-71
2022/03/21 06:11:13;;;;;;;77.35;11.70;;;;;;;;;;5090904;28;20587;-71
2022/03/21 06:13:42;;;;;;;72.18;11.35;;;;;;;;;;5104350;28;20250;-71
2022/03/21 06:16:10;;;;;;;72.80;11.00;;;;;;;;;;5111044;28;20268;-72
2022/03/21 06:18:38;;;;;;;71.97;12.63;;;;;;;;;;5111376;28;20675;-71
2022/03/21 06:21:06;;;;;;;69.25;10.80;;;;;;;;;;5112041;28;20287;-71
2022/03/21 06:23:34;;;;;;;74.43;11.32;;;;;;;;;;5111526;28;20437;-66
2022/03/21 06:26:01;;;;;;;75.93;12.25;;;;;;;;;;5110933;28;20457;-69
2022/03/21 06:28:29;;;;;;;69.78;11.70;;;;;;;;;;5102166;28;20246;-69
2022/03/21 06:30:56;;;;;;;75.97;11.48;;;;;;;;;;5091202;28;20216;-68
2022/03/21 06:33:25;;;;;;;69.40;11.95;;;;;;;;;;5090981;28;20242;-69
2022/03/21 06:35:52;;;;;;;68.82;10.60;;;;;;;;;;5091532;28;20204;-68
2022/03/21 06:38:19;;;;;;;66.45;10.07;;;;;;;;;;5091264;28;20295;-68
2022/03/21 06:40:48;;;;;;;68.00;11.02;;;;;;;;;;5091376;28;20579;-68
2022/03/21 06:43:16;;;;;;;68.05;10.50;;;;;;;;;;5091208;28;20212;-68
2022/03/21 06:45:44;;;;;;;71.82;11.82;;;;;;;;;;5091224;28;20227;-68
2022/03/21 06:48:11;;;;;;;70.90;10.50;;;;;;;;;;5090567;28;20300;-68
2022/03/21 06:50:38;;;;;;;68.95;10.30;;;;;;;;;;5091370;28;20208;-69
2022/03/21 06:53:05;;;;;;;73.50;11.73;;;;;;;;;;5091500;28;20215;-69
2022/03/21 06:55:32;;;;;;;69.78;11.10;;;;;;;;;;5091096;28;20201;-69
2022/03/21 06:58:03;;;;;;;68.70;10.80;;;;;;;;;;5089732;28;20319;-69
2022/03/21 07:00:31;;;;;;;71.28;10.93;;;;;;;;;;5088503;28;20200;-70
2022/03/21 07:02:58;;;;;;;74.82;11.65;;;;;;;;;;5091198;28;20216;-67
2022/03/21 07:05:26;;;;;;;72.25;11.15;;;;;;;;;;5091421;28;20200;-68
2022/03/21 07:07:53;;;;;;;68.95;10.10;;;;;;;;;;5090686;28;20228;-68
2022/03/21 07:10:20;;;;;;;74.70;11.65;;;;;;;;;;5091079;28;20204;-68
2022/03/21 07:12:47;;;;;;;70.55;11.25;;;;;;;;;;5090990;28;20207;-68
2022/03/21 07:15:16;;;;;;;74.45;11.55;;;;;;;;;;5090642;28;20212;-68
2022/03/21 07:17:43;;;;;;;66.75;10.00;;;;;;;;;;5090332;28;20278;-68
2022/03/21 07:20:11;;;;;;;68.15;9.90;;;;;;;;;;5091008;28;20205;-68
2022/03/21 07:22:38;;;;;;;71.65;12.02;;;;;;;;;;5090920;28;20300;-68
2022/03/21 07:25:06;;;;;;;68.15;10.80;;;;;;;;;;5091236;28;20647;-69
2022/03/21 07:27:34;;;;;;;66.80;9.90;;;;;;;;;;5091735;28;20706;-68
2022/03/21 07:30:01;;;;;;;72.07;10.68;;;;;;;;;;5094494;28;20310;-69
2022/03/21 07:32:29;;;;;;;67.18;10.25;;;;;;;;;;5101216;28;20298;-68
2022/03/21 07:34:58;;;;;;;72.75;10.00;;;;;;;;;;5114857;28;20214;-69
2022/03/21 07:37:25;;;;;;;69.78;11.30;;;;;;;;;;5114341;28;20223;-68
2022/03/21 07:39:52;;;;;;;68.72;10.38;;;;;;;;;;5115080;28;20290;-68
2022/03/21 07:42:19;;;;;;;67.78;10.57;;;;;;;;;;5114354;28;20290;-70
2022/03/21 07:47:34;;;;;;;68.45;10.40;;;;;;;;;;5114009;28;20690;-68
2022/03/21 07:50:01;;;;;;;68.72;10.65;;;;;;;;;;5114746;28;20199;-69
2022/03/21 07:52:28;;;;;;;70.80;9.82;;;;;;;;;;5114434;28;20211;-69
2022/03/21 07:54:55;;;;;;;68.97;10.80;;;;;;;;;;5113991;28;20229;-68
2022/03/21 07:57:23;;;;;;;69.85;11.15;;;;;;;;;;5113903;28;20228;-68
2022/03/21 07:59:50;;;;;;;67.97;10.23;;;;;;;;;;5114778;28;20209;-68
2022/03/21 08:02:19;;;;;;;69.70;10.77;;;;;;;;;;5113181;28;20305;-69
2022/03/21 08:04:47;;;;;;;71.13;10.10;;;;;;;;;;5111072;28;20200;-70
2022/03/21 08:07:15;;;;;;;70.60;10.37;;;;;;;;;;5113436;28;20228;-69
2022/03/21 08:09:42;;;;;;;66.63;9.33;;;;;;;;;;5114005;28;21030;-69
2022/03/21 08:12:10;;;;;;;71.30;11.35;;;;;;;;;;5114477;27;20442;-68
2022/03/21 08:14:37;;;;;;;70.45;10.43;;;;;;;;;;5113693;27;20746;-69
2022/03/21 08:17:04;;;;;;;68.05;9.85;;;;;;;;;;5114277;28;20220;-71
2022/03/21 08:19:31;;;;;;;71.65;11.52;;;;;;;;;;5113756;28;20209;-68
2022/03/21 08:22:00;;;;;;;68.85;10.82;;;;;;;;;;5113604;28;20204;-69
2022/03/21 08:24:30;;;;;;;70.90;11.00;;;;;;;;;;5114146;28;20209;-69
2022/03/21 08:26:57;;;;;;;68.70;11.00;;;;;;;;;;5114210;28;20883;-69
2022/03/21 08:29:24;;;;;;;71.30;11.60;;;;;;;;;;5113281;28;20459;-69
2022/03/21 08:31:51;;;;;;;69.07;11.00;;;;;;;;;;5113951;28;20818;-69
2022/03/21 08:34:18;;;;;;;68.60;10.80;;;;;;;;;;5112604;28;20458;-69
2022/03/21 08:36:46;;;;;;;67.40;10.63;;;;;;;;;;5090457;28;20479;-69
2022/03/21 08:39:14;;;;;;;67.30;10.27;;;;;;;;;;5091884;28;20449;-69
2022/03/21 08:41:41;;;;;;;75.30;11.17;;;;;;;;;;5093562;28;20450;-69
2022/03/21 08:44:09;;;;;;;68.57;10.63;;;;;;;;;;5093279;28;20868;-69
2022/03/21 08:46:36;;;;;;;73.37;11.30;;;;;;;;;;5093156;28;20492;-69
2022/03/21 08:51:48;;;;;;;70.17;11.30;;;;;;;;;;5093159;28;20844;-69
2022/03/21 08:54:16;;;;;;;68.57;10.27;;;;;;;;;;5092974;28;20536;-69
2022/03/21 08:56:44;;;;;;;71.37;11.60;;;;;;;;;;5092749;28;20466;-71
2022/03/21 08:59:11;;;;;;;72.07;11.23;;;;;;;;;;5092283;28;20457;-67
2022/03/21 09:01:38;;;;;;;68.80;10.73;;;;;;;;;;5092802;28;20540;-67
2022/03/21 09:04:05;;;;;;;69.70;11.30;;;;;;;;;;5092959;28;20529;-67
2022/03/21 09:06:33;;;;;;;72.53;12.20;;;;;;;;;;5089029;28;21005;-69
2022/03/21 09:09:00;;;;;;;70.30;10.93;;;;;;;;;;5092257;28;20533;-67
2022/03/21 09:11:28;;;;;;;72.23;11.37;;;;;;;;;;5092620;28;20797;-67
2022/03/21 09:13:55;;;;;;;71.60;11.70;;;;;;;;;;5092841;28;20708;-67
2022/03/21 09:16:23;;;;;;;71.43;11.47;;;;;;;;;;5092538;28;20881;-67
2022/03/21 09:18:50;;;;;;;72.30;10.27;;;;;;;;;;5092001;28;20545;-69
2022/03/21 09:21:18;;;;;;;68.70;10.83;;;;;;;;;;5092591;28;20450;-67
2022/03/21 09:23:45;;;;;;;67.63;10.30;;;;;;;;;;5092442;28;20481;-67
2022/03/21 09:26:12;;;;;;;69.20;11.40;;;;;;;;;;5092401;28;20549;-69
2022/03/21 09:28:43;;;;;;;70.67;10.90;;;;;;;;;;5091549;28;20446;-68
2022/03/21 09:31:10;;;;;;;69.27;11.37;;;;;;;;;;5092388;28;20455;-70
2022/03/21 09:33:39;;;;;;;76.00;11.33;;;;;;;;;;5092403;28;20452;-67
2022/03/21 09:36:06;;;;;;;73.13;11.90;;;;;;;;;;5092082;28;20484;-67
2022/03/21 09:38:34;;;;;;;74.63;11.60;;;;;;;;;;5087803;28;20978;-70
2022/03/21 09:41:03;;;;;;;69.40;11.83;;;;;;;;;;5092178;28;20822;-69
2022/03/21 09:43:31;;;;;;;67.27;11.10;;;;;;;;;;5092255;28;20446;-69
2022/03/21 09:46:00;;;;;;;73.27;11.00;;;;;;;;;;5092301;28;20476;-69
2022/03/21 09:48:28;;;;;;;73.50;12.13;;;;;;;;;;5110784;28;20534;-68
2022/03/21 09:50:56;;;;;;;70.00;10.87;;;;;;;;;;5112443;28;20477;-71
2022/03/21 09:53:24;;;;;;;71.00;11.90;;;;;;;;;;5112058;28;20446;-69
2022/03/21 09:55:52;;;;;;;68.67;11.13;;;;;;;;;;5112514;28;20933;-69
2022/03/21 09:58:20;;;;;;;71.73;12.27;;;;;;;;;;5111960;28;20835;-69
2022/03/21 10:00:48;;;;;;;71.00;12.83;;;;;;;;;;5108530;27;20536;-69
2022/03/21 10:03:17;;;;;;;71.70;12.10;;;;;;;;;;5111581;28;20447;-70
2022/03/21 10:05:46;;;;;;;70.97;12.50;;;;;;;;;;5112166;28;20867;-70
2022/03/21 10:08:20;;;;;;;73.60;13.13;;;;;;;;;;5111217;28;20499;-69
2022/03/21 10:10:57;;;;;;;72.10;13.13;;;;;;;;;;5112237;28;20506;-70
2022/03/21 10:13:25;;;;;;;70.37;12.70;;;;;;;;;;5112023;28;20441;-70
2022/03/21 10:16:07;;;;;;;71.37;12.40;;;;;;;;;;5111928;28;20528;-70
2022/03/21 10:18:35;;;;;;;71.10;13.57;;;;;;;;;;5111213;28;20536;-70
2022/03/21 10:21:12;;;;;;;71.77;14.40;;;;;;;;;;5111830;28;20475;-70
2022/03/21 10:23:39;;;;;;;69.20;12.27;;;;;;;;;;5111814;28;20803;-70
2022/03/21 10:26:21;;;;;;;75.00;12.37;;;;;;;;;;5111996;28;20475;-70
2022/03/21 10:28:48;;;;;;;69.40;11.67;;;;;;;;;;5110940;28;20528;-69
2022/03/21 10:31:34;;;;;;;69.80;12.03;;;;;;;;;;5107736;28;20454;-70
2022/03/21 10:34:03;;;;;;;71.20;11.63;;;;;;;;;;5111781;28;20477;-70
2022/03/21 10:36:30;;;;;;;71.83;13.77;;;;;;;;;;5111703;28;20553;-69
2022/03/21 10:39:07;;;;;;;69.53;12.87;;;;;;;;;;5111183;28;20532;-69
2022/03/21 10:41:36;;;;;;;71.80;13.43;;;;;;;;;;5111238;28;20532;-70
2022/03/21 10:44:03;;;;;;;71.33;12.90;;;;;;;;;;5111723;28;20437;-70
2022/03/21 10:46:31;;;;;;;73.30;13.30;;;;;;;;;;5111491;28;20465;-70
2022/03/21 10:49:08;;;;;;;72.83;13.60;;;;;;;;;;5111138;28;20452;-70
2022/03/21 10:51:47;;;;;;;71.20;13.47;;;;;;;;;;5111658;28;20482;-70
2022/03/21 10:54:29;;;;;;;69.47;11.33;;;;;;;;;;5111394;28;20445;-70
2022/03/21 10:56:57;;;;;;;70.17;12.30;;;;;;;;;;5111386;28;20543;-70
2022/03/21 10:59:24;;;;;;;70.53;12.00;;;;;;;;;;5111106;28;20860;-70
2022/03/21 11:01:51;;;;;;;72.57;13.80;;;;;;;;;;5110290;28;21140;-70
2022/03/21 11:04:20;;;;;;;70.50;13.73;;;;;;;;;;5114827;28;20446;-70
2022/03/21 11:06:47;;;;;;;69.17;12.43;;;;;;;;;;5115662;28;20476;-70
2022/03/21 11:09:16;;;;;;;71.80;12.80;;;;;;;;;;5115331;28;20816;-70
2022/03/21 11:11:43;;;;;;;69.60;12.40;;;;;;;;;;5115765;28;20457;-70
2022/03/21 11:14:10;;;;;;;72.33;11.73;;;;;;;;;;5115658;28;20891;-70
2022/03/21 11:16:38;;;;;;;70.77;13.50;;;;;;;;;;5115496;28;20461;-71
2022/03/21 11:19:05;;;;;;;71.47;13.07;;;;;;;;;;5114725;28;20448;-70
2022/03/21 11:21:35;;;;;;;69.07;12.43;;;;;;;;;;5115860;27;20443;-70
2022/03/21 11:24:02;;;;;;;67.93;11.60;;;;;;;;;;5115397;28;20446;-71
2022/03/21 11:26:33;;;;;;;69.87;12.67;;;;;;;;;;5115277;27;20471;-71
2022/03/21 11:29:09;;;;;;;76.10;14.93;;;;;;;;;;5114868;28;20506;-71
2022/03/21 11:31:41;;;;;;;69.60;13.30;;;;;;;;;;5115347;28;20510;-71
2022/03/21 11:34:26;;;;;;;68.90;12.87;;;;;;;;;;5115562;27;20529;-70
2022/03/21 11:36:56;;;;;;;70.70;13.57;;;;;;;;;;5115269;27;20478;-73
2022/03/21 11:39:24;;;;;;;69.70;11.97;;;;;;;;;;5114973;28;20479;-71
2022/03/21 11:41:58;;;;;;;68.80;13.03;;;;;;;;;;5115112;28;21001;-72
2022/03/21 11:44:26;;;;;;;70.70;13.37;;;;;;;;;;5115334;27;20445;-71
2022/03/21 11:46:53;;;;;;;71.13;12.83;;;;;;;;;;5115050;28;20472;-71
2022/03/21 11:49:38;;;;;;;70.30;13.50;;;;;;;;;;5114375;28;21052;-73
2022/03/21 11:52:06;;;;;;;67.27;12.13;;;;;;;;;;5104886;28;20456;-71
2022/03/21 11:54:34;;;;;;;68.33;13.50;;;;;;;;;;5114952;28;20449;-71
2022/03/21 11:57:02;;;;;;;72.30;14.60;;;;;;;;;;5114909;28;20462;-71
2022/03/21 11:59:49;;;;;;;68.63;13.60;;;;;;;;;;5114404;28;20489;-71
2022/03/21 12:02:35;;;;;;;69.60;12.90;;;;;;;;;;5114853;28;20474;-71
2022/03/21 12:05:03;;;;;;;67.83;12.60;;;;;;;;;;5114974;28;20874;-71
2022/03/21 12:07:32;;;;;;;68.87;12.60;;;;;;;;;;5114032;27;20550;-71
2022/03/21 12:09:59;;;;;;;67.93;12.07;;;;;;;;;;5114529;27;20973;-71
2022/03/21 12:12:49;;;;;;;68.97;12.07;;;;;;;;;;5114370;28;20544;-71
2022/03/21 12:15:17;;;;;;;66.77;12.07;;;;;;;;;;5114201;27;20462;-71
2022/03/21 12:17:48;;;;;;;69.17;13.13;;;;;;;;;;5113517;28;20485;-71
2022/03/21 12:20:18;;;;;;;67.80;12.80;;;;;;;;;;5114258;27;20454;-72
2022/03/21 12:22:52;;;;;;;69.73;13.77;;;;;;;;;;5114281;28;20454;-71
2022/03/21 12:25:21;;;;;;;82.13;14.27;;;;;;;;;;5114510;28;20449;-72
2022/03/21 12:27:50;;;;;;;71.47;12.90;;;;;;;;;;5113308;28;20462;-71
2022/03/21 12:30:36;;;;;;;67.67;12.93;;;;;;;;;;5114156;28;20468;-71
2022/03/21 12:33:05;;;;;;;67.53;12.30;;;;;;;;;;5114039;28;20481;-72
2022/03/21 12:35:51;;;;;;;69.17;12.87;;;;;;;;;;5114080;28;20445;-71
2022/03/21 12:38:21;;;;;;;67.37;11.20;;;;;;;;;;5113097;28;20503;-71
2022/03/21 12:40:52;;;;;;;68.97;12.93;;;;;;;;;;5114320;28;20454;-71
2022/03/21 12:43:20;;;;;;;69.20;12.27;;;;;;;;;;5114116;28;20451;-71
2022/03/21 12:45:49;;;;;;;67.80;11.83;;;;;;;;;;5113776;28;21140;-71
2022/03/21 12:48:17;;;;;;;69.20;11.30;;;;;;;;;;5113230;28;20534;-71
2022/03/21 12:50:47;;;;;;;70.00;13.10;;;;;;;;;;5114136;28;20448;-71
2022/03/21 12:53:16;;;;;;;69.10;11.90;;;;;;;;;;5113843;28;20451;-71
2022/03/21 12:55:44;;;;;;;69.67;12.67;;;;;;;;;;5113596;28;20462;-70
2022/03/21 12:58:12;;;;;;;70.67;13.00;;;;;;;;;;5112727;28;20481;-70
2022/03/21 13:00:40;;;;;;;67.37;12.10;;;;;;;;;;5113925;28;20553;-70
2022/03/21 13:03:08;;;;;;;76.80;12.73;;;;;;;;;;5113334;28;20493;-70
2022/03/21 13:11:22;;;;;;;66.50;11.53;;;;;;;;;;5113177;28;20417;-71
2022/03/21 13:13:53;;;;;;;66.87;11.17;;;;;;;;;;5113473;28;20536;-71
2022/03/21 13:16:21;;;;;;;69.93;11.67;;;;;;;;;;5113361;28;20469;-70
2022/03/21 13:18:49;;;;;;;68.77;12.73;;;;;;;;;;5112558;28;20508;-72
2022/03/21 13:21:19;;;;;;;70.43;12.23;;;;;;;;;;5113439;28;20446;-73
2022/03/21 13:23:46;;;;;;;66.30;10.90;;;;;;;;;;5113028;28;20533;-71
2022/03/21 13:26:14;;;;;;;67.70;11.30;;;;;;;;;;5112457;28;20476;-71
2022/03/21 13:28:43;;;;;;;70.63;11.83;;;;;;;;;;5112184;28;21019;-71
2022/03/21 13:31:11;;;;;;;64.77;10.10;;;;;;;;;;5112928;28;20465;-71
2022/03/21 13:33:40;;;;;;;67.47;11.27;;;;;;;;;;5113064;28;20661;-70
2022/03/21 13:36:08;;;;;;;69.63;11.67;;;;;;;;;;5112946;28;20831;-72
2022/03/21 13:38:37;;;;;;;69.13;12.23;;;;;;;;;;5112054;28;20918;-71
2022/03/21 13:41:13;;;;;;;67.47;11.23;;;;;;;;;;5113384;28;20452;-71
2022/03/21 13:43:40;;;;;;;67.80;12.27;;;;;;;;;;5112930;27;20868;-71
2022/03/21 13:46:09;;;;;;;71.53;11.53;;;;;;;;;;5112748;28;20466;-72
2022/03/21 13:48:40;;;;;;;68.27;10.87;;;;;;;;;;5112021;28;20445;-71
2022/03/21 13:51:08;;;;;;;68.77;11.60;;;;;;;;;;5112632;28;20988;-71
2022/03/21 13:53:39;;;;;;;68.20;11.60;;;;;;;;;;5112845;28;20451;-72
2022/03/21 13:56:06;;;;;;;69.83;10.90;;;;;;;;;;5112814;28;20473;-71
2022/03/21 13:58:36;;;;;;;67.17;12.07;;;;;;;;;;5111689;28;20999;-71
2022/03/21 14:01:03;;;;;;;67.00;10.30;;;;;;;;;;5112507;28;20464;-71
2022/03/21 14:03:36;;;;;;;69.57;11.83;;;;;;;;;;5112324;28;20539;-71
2022/03/21 14:06:05;;;;;;;69.17;11.00;;;;;;;;;;5112571;28;21068;-71
2022/03/21 14:08:32;;;;;;;67.33;11.17;;;;;;;;;;5111850;28;20449;-72
2022/03/21 14:11:05;;;;;;;68.03;9.90;;;;;;;;;;5112367;28;21021;-68
2022/03/21 14:13:34;;;;;;;65.80;11.40;;;;;;;;;;5112284;28;20461;-71
2022/03/21 14:16:01;;;;;;;68.33;11.00;;;;;;;;;;5112154;28;20549;-71
2022/03/21 14:18:29;;;;;;;71.57;14.60;;;;;;;;;;5111519;28;20482;-71
2022/03/21 14:21:00;;;;;;;67.97;12.10;;;;;;;;;;5112249;28;20446;-72
2022/03/21 14:23:27;;;;;;;68.97;11.10;;;;;;;;;;5112359;28;20499;-71
2022/03/21 14:28:39;;;;;;;68.97;11.30;;;;;;;;;;5111554;28;20478;-72
2022/03/21 14:31:07;;;;;;;65.90;10.97;;;;;;;;;;5112222;28;20906;-71
2022/03/21 14:33:35;;;;;;;65.87;10.53;;;;;;;;;;5112298;28;20445;-71
2022/03/21 14:36:04;;;;;;;68.30;10.33;;;;;;;;;;5112018;28;20475;-71
2022/03/21 14:38:31;;;;;;;68.13;11.20;;;;;;;;;;5114774;28;20487;-71
2022/03/21 14:40:58;;;;;;;68.50;11.70;;;;;;;;;;5116256;28;20538;-71
2022/03/21 14:43:27;;;;;;;69.27;11.87;;;;;;;;;;5116339;28;20879;-71
2022/03/21 14:45:55;;;;;;;66.87;10.90;;;;;;;;;;5116246;28;20538;-71
2022/03/21 14:48:22;;;;;;;64.33;9.37;;;;;;;;;;5115614;28;20440;-71
2022/03/21 14:50:50;;;;;;;68.40;11.20;;;;;;;;;;5116126;28;20450;-71
2022/03/21 14:53:18;;;;;;;69.97;10.20;;;;;;;;;;5114486;28;20445;-73